sensor_id;sensor_type;location;lat;lon;timestamp;temperature;humidity
44579;DHT22;37422;51.402;0.016;2022-12-24T00:01:08;9.20;99.90
44579;DHT22;37422;51.402;0.016;2022-12-24T00:04:08;9.20;99.90
44579;DHT22;37422;51.402;0.016;2022-12-24T00:14:33;9.30;99.90
44579;DHT22;37422;51.402;0.016;2022-12-24T00:17:14;9.30;99.90
44579;DHT22;37422;51.402;0.016;2022-12-24T00:19:58;9.20;99.90
44579;DHT22;37422;51.402;0.016;2022-12-24T00:22:44;9.20;99.90
44579;DHT22;37422;51.402;0.016;2022-12-24T00:25:22;9.20;99.90
44579;DHT22;37422;51.402;0.016;2022-12-24T00:27:50;9.20;99.90
44579;DHT22;37422;51.402;0.016;2022-12-24T00:30:24;9.20;99.90
44579;DHT22;37422;51.402;0.016;2022-12-24T00:32:56;9.20;99.90
44579;DHT22;37422;51.402;0.016;2022-12-24T00:35:33;9.20;99.90
44579;DHT22;37422;51.402;0.016;2022-12-24T00:38:01;9.20;99.90
44579;DHT22;37422;51.402;0.016;2022-12-24T00:40:32;9.20;99.90
44579;DHT22;37422;51.402;0.016;2022-12-24T00:43:02;9.20;99.90
44579;DHT22;37422;51.402;0.016;2022-12-24T00:45:37;9.20;99.90
44579;DHT22;37422;51.402;0.016;2022-12-24T00:48:15;9.20;99.90
44579;DHT22;37422;51.402;0.016;2022-12-24T00:50:43;9.20;99.90
44579;DHT22;37422;51.402;0.016;2022-12-24T00:58:15;9.10;99.90
44579;DHT22;37422;51.402;0.016;2022-12-24T01:00:43;9.10;99.90
44579;DHT22;37422;51.402;0.016;2022-12-24T01:03:14;9.10;99.90
44579;DHT22;37422;51.402;0.016;2022-12-24T01:05:45;9.10;99.90
44579;DHT22;37422;51.402;0.016;2022-12-24T01:08:18;9.10;99.90
44579;DHT22;37422;51.402;0.016;2022-12-24T01:10:51;9.10;99.90
44579;DHT22;37422;51.402;0.016;2022-12-24T01:13:24;9.00;99.90
44579;DHT22;37422;51.402;0.016;2022-12-24T01:15:55;9.00;99.90
44579;DHT22;37422;51.402;0.016;2022-12-24T01:18:34;9.10;99.90
44579;DHT22;37422;51.402;0.016;2022-12-24T01:21:02;9.00;99.90
44579;DHT22;37422;51.402;0.016;2022-12-24T01:28:55;9.00;99.90
44579;DHT22;37422;51.402;0.016;2022-12-24T01:31:24;8.90;99.90
44579;DHT22;37422;51.402;0.016;2022-12-24T01:34:43;8.90;99.90
44579;DHT22;37422;51.402;0.016;2022-12-24T01:37:12;8.90;99.90
44579;DHT22;37422;51.402;0.016;2022-12-24T01:39:40;8.90;99.90
44579;DHT22;37422;51.402;0.016;2022-12-24T01:42:24;8.90;99.90
44579;DHT22;37422;51.402;0.016;2022-12-24T01:45:48;8.80;99.90
44579;DHT22;37422;51.402;0.016;2022-12-24T01:48:48;8.80;99.90
44579;DHT22;37422;51.402;0.016;2022-12-24T01:51:47;8.70;99.90
44579;DHT22;37422;51.402;0.016;2022-12-24T01:54:31;8.80;99.90
44579;DHT22;37422;51.402;0.016;2022-12-24T01:57:10;8.80;99.90
44579;DHT22;37422;51.402;0.016;2022-12-24T01:59:42;8.80;99.90
44579;DHT22;37422;51.402;0.016;2022-12-24T02:02:12;8.80;99.90
44579;DHT22;37422;51.402;0.016;2022-12-24T02:04:56;8.80;99.90
44579;DHT22;37422;51.402;0.016;2022-12-24T02:07:37;8.80;99.90
44579;DHT22;37422;51.402;0.016;2022-12-24T02:10:15;8.80;99.90
44579;DHT22;37422;51.402;0.016;2022-12-24T02:12:51;8.90;99.90
44579;DHT22;37422;51.402;0.016;2022-12-24T02:15:26;9.00;99.90
44579;DHT22;37422;51.402;0.016;2022-12-24T02:18:23;9.10;99.90
44579;DHT22;37422;51.402;0.016;2022-12-24T02:21:32;9.10;99.90
44579;DHT22;37422;51.402;0.016;2022-12-24T02:27:28;9.30;99.90
44579;DHT22;37422;51.402;0.016;2022-12-24T02:31:07;9.20;99.90
44579;DHT22;37422;51.402;0.016;2022-12-24T02:38:19;9.20;99.90
44579;DHT22;37422;51.402;0.016;2022-12-24T02:41:00;9.10;99.90
44579;DHT22;37422;51.402;0.016;2022-12-24T02:43:41;9.10;99.90
44579;DHT22;37422;51.402;0.016;2022-12-24T02:46:15;9.10;99.90
44579;DHT22;37422;51.402;0.016;2022-12-24T02:48:50;9.00;99.90
44579;DHT22;37422;51.402;0.016;2022-12-24T02:51:25;9.00;99.90
44579;DHT22;37422;51.402;0.016;2022-12-24T02:53:53;9.00;99.90
44579;DHT22;37422;51.402;0.016;2022-12-24T02:56:40;8.90;99.90
44579;DHT22;37422;51.402;0.016;2022-12-24T03:11:08;8.70;99.90
44579;DHT22;37422;51.402;0.016;2022-12-24T03:13:36;8.70;99.90
44579;DHT22;37422;51.402;0.016;2022-12-24T03:16:10;8.70;99.90
44579;DHT22;37422;51.402;0.016;2022-12-24T03:18:41;8.70;99.90
44579;DHT22;37422;51.402;0.016;2022-12-24T03:23:48;8.70;99.90
44579;DHT22;37422;51.402;0.016;2022-12-24T03:26:18;8.70;99.90
44579;DHT22;37422;51.402;0.016;2022-12-24T03:28:47;8.70;99.90
44579;DHT22;37422;51.402;0.016;2022-12-24T03:31:19;8.70;99.90
44579;DHT22;37422;51.402;0.016;2022-12-24T03:33:51;8.80;99.90
44579;DHT22;37422;51.402;0.016;2022-12-24T03:36:19;8.70;99.90
44579;DHT22;37422;51.402;0.016;2022-12-24T03:38:50;8.70;99.90
44579;DHT22;37422;51.402;0.016;2022-12-24T03:41:21;8.70;99.90
44579;DHT22;37422;51.402;0.016;2022-12-24T03:43:48;8.70;99.90
44579;DHT22;37422;51.402;0.016;2022-12-24T03:46:20;8.70;99.90
44579;DHT22;37422;51.402;0.016;2022-12-24T03:48:51;8.70;99.90
44579;DHT22;37422;51.402;0.016;2022-12-24T03:51:23;8.70;99.90
44579;DHT22;37422;51.402;0.016;2022-12-24T03:53:54;8.70;99.90
44579;DHT22;37422;51.402;0.016;2022-12-24T03:56:23;8.60;99.90
44579;DHT22;37422;51.402;0.016;2022-12-24T04:02:41;8.60;99.90
44579;DHT22;37422;51.402;0.016;2022-12-24T04:05:19;8.50;99.90
44579;DHT22;37422;51.402;0.016;2022-12-24T04:07:53;8.50;99.90
44579;DHT22;37422;51.402;0.016;2022-12-24T04:10:22;8.50;99.90
44579;DHT22;37422;51.402;0.016;2022-12-24T04:12:52;8.50;99.90
44579;DHT22;37422;51.402;0.016;2022-12-24T04:15:35;8.50;99.90
44579;DHT22;37422;51.402;0.016;2022-12-24T04:18:11;8.40;99.90
44579;DHT22;37422;51.402;0.016;2022-12-24T04:20:51;8.40;99.90
44579;DHT22;37422;51.402;0.016;2022-12-24T04:23:28;8.40;99.90
44579;DHT22;37422;51.402;0.016;2022-12-24T04:26:09;8.40;99.90
44579;DHT22;37422;51.402;0.016;2022-12-24T04:28:40;8.40;99.90
44579;DHT22;37422;51.402;0.016;2022-12-24T04:31:20;8.50;99.90
44579;DHT22;37422;51.402;0.016;2022-12-24T04:33:52;8.50;99.90
44579;DHT22;37422;51.402;0.016;2022-12-24T04:36:20;8.50;99.90
44579;DHT22;37422;51.402;0.016;2022-12-24T04:38:49;8.50;99.90
44579;DHT22;37422;51.402;0.016;2022-12-24T04:41:21;8.50;99.90
44579;DHT22;37422;51.402;0.016;2022-12-24T04:44:00;8.50;99.90
44579;DHT22;37422;51.402;0.016;2022-12-24T04:46:41;8.50;99.90
44579;DHT22;37422;51.402;0.016;2022-12-24T04:49:13;8.60;99.90
44579;DHT22;37422;51.402;0.016;2022-12-24T04:51:45;8.60;99.90
44579;DHT22;37422;51.402;0.016;2022-12-24T04:54:25;8.60;99.90
44579;DHT22;37422;51.402;0.016;2022-12-24T04:56:55;8.60;99.90
44579;DHT22;37422;51.402;0.016;2022-12-24T04:59:33;8.60;99.90
44579;DHT22;37422;51.402;0.016;2022-12-24T05:02:01;8.60;99.90
44579;DHT22;37422;51.402;0.016;2022-12-24T05:04:29;8.60;99.90
44579;DHT22;37422;51.402;0.016;2022-12-24T05:06:59;8.50;99.90
44579;DHT22;37422;51.402;0.016;2022-12-24T05:09:27;8.70;99.90
44579;DHT22;37422;51.402;0.016;2022-12-24T05:11:55;8.50;99.90
44579;DHT22;37422;51.402;0.016;2022-12-24T05:14:23;8.50;99.90
44579;DHT22;37422;51.402;0.016;2022-12-24T05:16:57;8.50;99.90
44579;DHT22;37422;51.402;0.016;2022-12-24T05:19:28;8.40;99.90
44579;DHT22;37422;51.402;0.016;2022-12-24T05:21:57;8.40;99.90
44579;DHT22;37422;51.402;0.016;2022-12-24T05:24:45;8.40;99.90
44579;DHT22;37422;51.402;0.016;2022-12-24T05:27:35;8.30;99.90
44579;DHT22;37422;51.402;0.016;2022-12-24T05:30:20;8.30;99.90
44579;DHT22;37422;51.402;0.016;2022-12-24T05:32:48;8.30;99.90
44579;DHT22;37422;51.402;0.016;2022-12-24T05:35:19;8.20;99.90
44579;DHT22;37422;51.402;0.016;2022-12-24T05:37:48;8.30;99.90
44579;DHT22;37422;51.402;0.016;2022-12-24T05:40:17;8.20;99.90
44579;DHT22;37422;51.402;0.016;2022-12-24T05:42:48;8.20;99.90
44579;DHT22;37422;51.402;0.016;2022-12-24T05:45:16;8.20;99.90
44579;DHT22;37422;51.402;0.016;2022-12-24T05:47:47;8.20;99.90
44579;DHT22;37422;51.402;0.016;2022-12-24T05:50:15;8.20;99.90
44579;DHT22;37422;51.402;0.016;2022-12-24T05:52:43;8.20;99.90
44579;DHT22;37422;51.402;0.016;2022-12-24T05:55:11;8.20;99.90
44579;DHT22;37422;51.402;0.016;2022-12-24T05:57:40;8.20;99.90
44579;DHT22;37422;51.402;0.016;2022-12-24T06:00:14;8.20;99.90
44579;DHT22;37422;51.402;0.016;2022-12-24T06:02:44;8.20;99.90
44579;DHT22;37422;51.402;0.016;2022-12-24T06:05:12;8.20;99.90
44579;DHT22;37422;51.402;0.016;2022-12-24T06:07:40;8.20;99.90
44579;DHT22;37422;51.402;0.016;2022-12-24T06:10:11;8.20;99.90
44579;DHT22;37422;51.402;0.016;2022-12-24T06:12:41;8.20;99.90
44579;DHT22;37422;51.402;0.016;2022-12-24T06:15:21;8.30;99.90
44579;DHT22;37422;51.402;0.016;2022-12-24T06:17:53;8.10;99.90
44579;DHT22;37422;51.402;0.016;2022-12-24T06:20:25;8.10;99.90
44579;DHT22;37422;51.402;0.016;2022-12-24T06:22:59;8.10;99.90
44579;DHT22;37422;51.402;0.016;2022-12-24T06:25:33;8.10;99.90
44579;DHT22;37422;51.402;0.016;2022-12-24T06:28:08;8.00;99.90
44579;DHT22;37422;51.402;0.016;2022-12-24T06:30:40;8.00;99.90
44579;DHT22;37422;51.402;0.016;2022-12-24T06:33:09;8.00;99.90
44579;DHT22;37422;51.402;0.016;2022-12-24T06:35:37;7.90;99.90
44579;DHT22;37422;51.402;0.016;2022-12-24T06:38:11;7.90;99.90
44579;DHT22;37422;51.402;0.016;2022-12-24T06:40:42;7.90;99.90
44579;DHT22;37422;51.402;0.016;2022-12-24T06:43:28;7.70;99.90
44579;DHT22;37422;51.402;0.016;2022-12-24T06:46:05;7.80;99.90
44579;DHT22;37422;51.402;0.016;2022-12-24T06:48:51;7.80;99.90
44579;DHT22;37422;51.402;0.016;2022-12-24T06:51:26;7.70;99.90
44579;DHT22;37422;51.402;0.016;2022-12-24T06:54:27;7.70;99.90
44579;DHT22;37422;51.402;0.016;2022-12-24T06:57:06;7.70;99.90
44579;DHT22;37422;51.402;0.016;2022-12-24T06:59:55;7.60;99.90
44579;DHT22;37422;51.402;0.016;2022-12-24T07:06:30;7.60;99.90
44579;DHT22;37422;51.402;0.016;2022-12-24T07:09:20;7.50;99.90
44579;DHT22;37422;51.402;0.016;2022-12-24T07:11:52;7.50;99.90
44579;DHT22;37422;51.402;0.016;2022-12-24T07:14:23;7.50;99.90
44579;DHT22;37422;51.402;0.016;2022-12-24T07:16:51;7.50;99.90
44579;DHT22;37422;51.402;0.016;2022-12-24T07:19:26;7.50;99.90
44579;DHT22;37422;51.402;0.016;2022-12-24T07:22:00;7.40;99.90
44579;DHT22;37422;51.402;0.016;2022-12-24T07:24:29;7.40;99.90
44579;DHT22;37422;51.402;0.016;2022-12-24T07:27:01;7.40;99.90
44579;DHT22;37422;51.402;0.016;2022-12-24T07:29:29;7.30;99.90
44579;DHT22;37422;51.402;0.016;2022-12-24T07:31:56;7.20;99.90
44579;DHT22;37422;51.402;0.016;2022-12-24T07:34:27;7.20;99.90
44579;DHT22;37422;51.402;0.016;2022-12-24T07:36:54;7.10;99.90
44579;DHT22;37422;51.402;0.016;2022-12-24T07:39:22;7.00;99.90
44579;DHT22;37422;51.402;0.016;2022-12-24T07:41:54;6.90;99.90
44579;DHT22;37422;51.402;0.016;2022-12-24T07:44:24;6.90;99.90
44579;DHT22;37422;51.402;0.016;2022-12-24T07:46:51;6.80;99.90
44579;DHT22;37422;51.402;0.016;2022-12-24T07:49:29;6.70;99.90
44579;DHT22;37422;51.402;0.016;2022-12-24T07:51:57;6.60;99.90
44579;DHT22;37422;51.402;0.016;2022-12-24T07:54:27;6.60;99.90
44579;DHT22;37422;51.402;0.016;2022-12-24T07:57:01;6.50;99.90
44579;DHT22;37422;51.402;0.016;2022-12-24T07:59:30;6.50;99.90
44579;DHT22;37422;51.402;0.016;2022-12-24T08:02:04;6.60;99.90
44579;DHT22;37422;51.402;0.016;2022-12-24T08:04:36;6.60;99.90
44579;DHT22;37422;51.402;0.016;2022-12-24T08:07:06;6.60;99.90
44579;DHT22;37422;51.402;0.016;2022-12-24T08:09:35;6.60;99.90
44579;DHT22;37422;51.402;0.016;2022-12-24T08:12:03;6.60;99.90
44579;DHT22;37422;51.402;0.016;2022-12-24T08:14:34;6.70;99.90
44579;DHT22;37422;51.402;0.016;2022-12-24T08:17:04;6.80;99.90
44579;DHT22;37422;51.402;0.016;2022-12-24T08:19:32;7.00;99.90
44579;DHT22;37422;51.402;0.016;2022-12-24T08:22:00;7.00;99.90
44579;DHT22;37422;51.402;0.016;2022-12-24T08:24:34;7.10;99.90
44579;DHT22;37422;51.402;0.016;2022-12-24T08:27:03;7.10;99.90
44579;DHT22;37422;51.402;0.016;2022-12-24T08:29:31;7.00;99.90
44579;DHT22;37422;51.402;0.016;2022-12-24T08:32:00;7.00;99.90
44579;DHT22;37422;51.402;0.016;2022-12-24T08:34:31;6.90;99.90
44579;DHT22;37422;51.402;0.016;2022-12-24T08:37:03;6.90;99.90
44579;DHT22;37422;51.402;0.016;2022-12-24T08:39:34;6.90;99.90
44579;DHT22;37422;51.402;0.016;2022-12-24T08:42:03;6.80;99.90
44579;DHT22;37422;51.402;0.016;2022-12-24T08:44:35;6.80;99.90
44579;DHT22;37422;51.402;0.016;2022-12-24T08:47:38;6.70;99.90
44579;DHT22;37422;51.402;0.016;2022-12-24T08:50:27;6.70;99.90
44579;DHT22;37422;51.402;0.016;2022-12-24T08:53:23;6.50;99.90
44579;DHT22;37422;51.402;0.016;2022-12-24T08:56:10;6.60;99.90
44579;DHT22;37422;51.402;0.016;2022-12-24T08:58:45;6.60;99.90
44579;DHT22;37422;51.402;0.016;2022-12-24T09:01:18;6.50;99.90
44579;DHT22;37422;51.402;0.016;2022-12-24T09:03:49;6.40;99.90
44579;DHT22;37422;51.402;0.016;2022-12-24T09:06:20;6.40;99.90
44579;DHT22;37422;51.402;0.016;2022-12-24T09:08:51;6.40;99.90
44579;DHT22;37422;51.402;0.016;2022-12-24T09:11:24;6.30;99.90
44579;DHT22;37422;51.402;0.016;2022-12-24T09:14:03;6.30;99.90
44579;DHT22;37422;51.402;0.016;2022-12-24T09:16:51;6.30;99.90
44579;DHT22;37422;51.402;0.016;2022-12-24T09:19:35;6.30;99.90
44579;DHT22;37422;51.402;0.016;2022-12-24T09:22:16;6.40;99.90
44579;DHT22;37422;51.402;0.016;2022-12-24T09:24:44;6.50;99.90
44579;DHT22;37422;51.402;0.016;2022-12-24T09:27:45;6.50;99.90
44579;DHT22;37422;51.402;0.016;2022-12-24T09:31:08;6.60;99.90
44579;DHT22;37422;51.402;0.016;2022-12-24T09:34:48;6.80;99.90
44579;DHT22;37422;51.402;0.016;2022-12-24T09:38:07;6.80;99.90
44579;DHT22;37422;51.402;0.016;2022-12-24T09:40:49;7.10;99.90
44579;DHT22;37422;51.402;0.016;2022-12-24T09:53:31;7.60;99.90
44579;DHT22;37422;51.402;0.016;2022-12-24T09:57:22;7.80;99.90
44579;DHT22;37422;51.402;0.016;2022-12-24T10:00:56;7.90;99.90
44579;DHT22;37422;51.402;0.016;2022-12-24T10:04:27;8.00;99.90
44579;DHT22;37422;51.402;0.016;2022-12-24T10:12:01;8.30;99.90
44579;DHT22;37422;51.402;0.016;2022-12-24T10:22:52;8.70;99.90
44579;DHT22;37422;51.402;0.016;2022-12-24T10:26:13;8.80;99.90
44579;DHT22;37422;51.402;0.016;2022-12-24T10:43:21;9.10;99.90
44579;DHT22;37422;51.402;0.016;2022-12-24T10:46:40;9.10;99.90
44579;DHT22;37422;51.402;0.016;2022-12-24T10:52:28;9.30;99.90
44579;DHT22;37422;51.402;0.016;2022-12-24T11:00:00;9.40;99.90
44579;DHT22;37422;51.402;0.016;2022-12-24T11:02:47;9.50;99.90
44579;DHT22;37422;51.402;0.016;2022-12-24T11:09:18;9.70;99.90
44579;DHT22;37422;51.402;0.016;2022-12-24T11:11:54;9.80;99.90
44579;DHT22;37422;51.402;0.016;2022-12-24T11:21:37;10.00;99.90
44579;DHT22;37422;51.402;0.016;2022-12-24T11:25:28;10.10;99.90
44579;DHT22;37422;51.402;0.016;2022-12-24T11:32:34;10.30;99.90
44579;DHT22;37422;51.402;0.016;2022-12-24T11:39:31;10.40;99.90
44579;DHT22;37422;51.402;0.016;2022-12-24T11:46:38;10.60;99.90
44579;DHT22;37422;51.402;0.016;2022-12-24T11:49:51;10.70;99.90
44579;DHT22;37422;51.402;0.016;2022-12-24T11:52:39;11.00;99.90
44579;DHT22;37422;51.402;0.016;2022-12-24T11:56:07;11.00;99.90
44579;DHT22;37422;51.402;0.016;2022-12-24T11:59:17;11.10;99.90
44579;DHT22;37422;51.402;0.016;2022-12-24T12:02:58;11.20;99.90
44579;DHT22;37422;51.402;0.016;2022-12-24T12:10:04;11.60;99.90
44579;DHT22;37422;51.402;0.016;2022-12-24T12:13:20;11.80;99.90
44579;DHT22;37422;51.402;0.016;2022-12-24T12:17:00;11.90;99.90
44579;DHT22;37422;51.402;0.016;2022-12-24T12:20:49;11.90;99.90
44579;DHT22;37422;51.402;0.016;2022-12-24T12:24:28;12.00;99.90
44579;DHT22;37422;51.402;0.016;2022-12-24T12:27:27;11.90;99.90
44579;DHT22;37422;51.402;0.016;2022-12-24T12:30:15;12.00;99.90
44579;DHT22;37422;51.402;0.016;2022-12-24T12:33:32;12.00;99.90
44579;DHT22;37422;51.402;0.016;2022-12-24T12:36:52;12.00;99.90
44579;DHT22;37422;51.402;0.016;2022-12-24T12:39:25;12.00;99.90
44579;DHT22;37422;51.402;0.016;2022-12-24T12:42:14;11.90;99.90
44579;DHT22;37422;51.402;0.016;2022-12-24T12:56:59;11.70;99.90
44579;DHT22;37422;51.402;0.016;2022-12-24T13:18:11;11.40;99.90
44579;DHT22;37422;51.402;0.016;2022-12-24T13:21:48;11.30;99.90
44579;DHT22;37422;51.402;0.016;2022-12-24T13:24:29;11.30;99.90
44579;DHT22;37422;51.402;0.016;2022-12-24T13:30:58;11.20;99.90
44579;DHT22;37422;51.402;0.016;2022-12-24T13:33:58;11.20;99.90
44579;DHT22;37422;51.402;0.016;2022-12-24T13:36:59;11.20;99.90
44579;DHT22;37422;51.402;0.016;2022-12-24T13:40:34;11.20;99.90
44579;DHT22;37422;51.402;0.016;2022-12-24T13:43:18;11.20;99.90
44579;DHT22;37422;51.402;0.016;2022-12-24T13:45:51;11.20;99.90
44579;DHT22;37422;51.402;0.016;2022-12-24T13:48:36;11.10;99.90
44579;DHT22;37422;51.402;0.016;2022-12-24T13:51:19;11.20;99.90
44579;DHT22;37422;51.402;0.016;2022-12-24T13:54:00;11.10;99.90
44579;DHT22;37422;51.402;0.016;2022-12-24T13:56:37;11.20;99.90
44579;DHT22;37422;51.402;0.016;2022-12-24T13:59:16;11.10;99.90
44579;DHT22;37422;51.402;0.016;2022-12-24T14:01:51;11.10;99.90
44579;DHT22;37422;51.402;0.016;2022-12-24T14:04:33;11.10;99.90
44579;DHT22;37422;51.402;0.016;2022-12-24T14:07:04;11.10;99.90
44579;DHT22;37422;51.402;0.016;2022-12-24T14:09:32;11.10;99.90
44579;DHT22;37422;51.402;0.016;2022-12-24T14:14:46;11.10;99.90
44579;DHT22;37422;51.402;0.016;2022-12-24T14:17:27;11.10;99.90
44579;DHT22;37422;51.402;0.016;2022-12-24T14:20:01;11.10;99.90
44579;DHT22;37422;51.402;0.016;2022-12-24T14:22:43;11.10;99.90
44579;DHT22;37422;51.402;0.016;2022-12-24T14:25:18;11.10;99.90
44579;DHT22;37422;51.402;0.016;2022-12-24T14:27:55;11.10;99.90
44579;DHT22;37422;51.402;0.016;2022-12-24T14:30:39;11.10;99.90
44579;DHT22;37422;51.402;0.016;2022-12-24T14:33:32;11.00;99.90
44579;DHT22;37422;51.402;0.016;2022-12-24T14:36:19;11.10;99.90
44579;DHT22;37422;51.402;0.016;2022-12-24T14:39:08;11.00;99.90
44579;DHT22;37422;51.402;0.016;2022-12-24T14:45:36;11.00;99.90
44579;DHT22;37422;51.402;0.016;2022-12-24T14:48:38;11.30;99.90
44579;DHT22;37422;51.402;0.016;2022-12-24T14:51:34;11.30;99.90
44579;DHT22;37422;51.402;0.016;2022-12-24T14:54:49;11.30;99.90
44579;DHT22;37422;51.402;0.016;2022-12-24T15:00:37;11.40;99.90
44579;DHT22;37422;51.402;0.016;2022-12-24T15:06:53;11.40;99.90
44579;DHT22;37422;51.402;0.016;2022-12-24T15:09:47;11.40;99.90
44579;DHT22;37422;51.402;0.016;2022-12-24T15:12:46;11.30;99.90
44579;DHT22;37422;51.402;0.016;2022-12-24T15:15:54;11.20;99.90
44579;DHT22;37422;51.402;0.016;2022-12-24T15:19:28;11.10;99.90
44579;DHT22;37422;51.402;0.016;2022-12-24T15:22:52;11.00;99.90
44579;DHT22;37422;51.402;0.016;2022-12-24T15:29:19;10.80;99.90
44579;DHT22;37422;51.402;0.016;2022-12-24T15:32:26;10.80;99.90
44579;DHT22;37422;51.402;0.016;2022-12-24T15:36:09;10.70;99.90
44579;DHT22;37422;51.402;0.016;2022-12-24T15:39:27;10.70;99.90
44579;DHT22;37422;51.402;0.016;2022-12-24T15:42:21;10.60;99.90
44579;DHT22;37422;51.402;0.016;2022-12-24T15:48:37;10.50;99.90
44579;DHT22;37422;51.402;0.016;2022-12-24T15:51:39;10.40;99.90
44579;DHT22;37422;51.402;0.016;2022-12-24T15:54:41;10.40;99.90
44579;DHT22;37422;51.402;0.016;2022-12-24T15:57:36;10.30;99.90
44579;DHT22;37422;51.402;0.016;2022-12-24T16:06:19;10.20;99.90
44579;DHT22;37422;51.402;0.016;2022-12-24T16:09:47;10.10;99.90
44579;DHT22;37422;51.402;0.016;2022-12-24T16:12:38;10.00;99.90
44579;DHT22;37422;51.402;0.016;2022-12-24T16:16:13;10.00;99.90
44579;DHT22;37422;51.402;0.016;2022-12-24T16:19:06;10.00;99.90
44579;DHT22;37422;51.402;0.016;2022-12-24T16:22:21;10.00;99.90
44579;DHT22;37422;51.402;0.016;2022-12-24T16:25:31;10.00;99.90
44579;DHT22;37422;51.402;0.016;2022-12-24T16:34:04;9.50;99.90
44579;DHT22;37422;51.402;0.016;2022-12-24T16:37:21;9.90;99.90
44579;DHT22;37422;51.402;0.016;2022-12-24T16:44:39;9.90;99.90
44579;DHT22;37422;51.402;0.016;2022-12-24T16:57:47;9.90;99.90
44579;DHT22;37422;51.402;0.016;2022-12-24T17:00:38;10.00;99.90
44579;DHT22;37422;51.402;0.016;2022-12-24T17:03:16;10.00;99.90
44579;DHT22;37422;51.402;0.016;2022-12-24T17:06:35;10.00;99.90
44579;DHT22;37422;51.402;0.016;2022-12-24T17:09:28;10.20;99.90
44579;DHT22;37422;51.402;0.016;2022-12-24T17:12:34;10.20;99.90
44579;DHT22;37422;51.402;0.016;2022-12-24T17:15:31;10.20;99.90
44579;DHT22;37422;51.402;0.016;2022-12-24T17:18:43;10.30;99.90
44579;DHT22;37422;51.402;0.016;2022-12-24T17:21:53;10.30;99.90
44579;DHT22;37422;51.402;0.016;2022-12-24T17:24:32;10.40;99.90
44579;DHT22;37422;51.402;0.016;2022-12-24T17:27:05;10.30;99.90
44579;DHT22;37422;51.402;0.016;2022-12-24T17:29:37;10.40;99.90
44579;DHT22;37422;51.402;0.016;2022-12-24T17:32:21;10.40;99.90
44579;DHT22;37422;51.402;0.016;2022-12-24T17:35:12;10.40;99.90
44579;DHT22;37422;51.402;0.016;2022-12-24T17:37:50;10.50;99.90
44579;DHT22;37422;51.402;0.016;2022-12-24T17:40:26;10.50;99.90
44579;DHT22;37422;51.402;0.016;2022-12-24T17:42:59;10.50;99.90
44579;DHT22;37422;51.402;0.016;2022-12-24T17:45:27;10.50;99.90
44579;DHT22;37422;51.402;0.016;2022-12-24T17:47:55;10.50;99.90
44579;DHT22;37422;51.402;0.016;2022-12-24T17:50:29;10.50;99.90
44579;DHT22;37422;51.402;0.016;2022-12-24T17:53:06;10.40;99.90
44579;DHT22;37422;51.402;0.016;2022-12-24T17:55:39;10.50;99.90
44579;DHT22;37422;51.402;0.016;2022-12-24T17:58:21;10.50;99.90
44579;DHT22;37422;51.402;0.016;2022-12-24T18:00:59;10.60;99.90
44579;DHT22;37422;51.402;0.016;2022-12-24T18:03:39;10.60;99.90
44579;DHT22;37422;51.402;0.016;2022-12-24T18:06:11;10.60;99.90
44579;DHT22;37422;51.402;0.016;2022-12-24T18:09:03;10.60;99.90
44579;DHT22;37422;51.402;0.016;2022-12-24T18:11:56;10.60;99.90
44579;DHT22;37422;51.402;0.016;2022-12-24T18:14:28;10.60;99.90
44579;DHT22;37422;51.402;0.016;2022-12-24T18:17:11;10.60;99.90
44579;DHT22;37422;51.402;0.016;2022-12-24T18:20:34;10.60;99.90
44579;DHT22;37422;51.402;0.016;2022-12-24T18:23:44;10.70;99.90
44579;DHT22;37422;51.402;0.016;2022-12-24T18:26:33;10.70;99.90
44579;DHT22;37422;51.402;0.016;2022-12-24T18:29:09;10.70;99.90
44579;DHT22;37422;51.402;0.016;2022-12-24T18:31:37;10.70;99.90
44579;DHT22;37422;51.402;0.016;2022-12-24T18:34:13;10.80;99.90
44579;DHT22;37422;51.402;0.016;2022-12-24T18:36:43;10.80;99.90
44579;DHT22;37422;51.402;0.016;2022-12-24T18:39:19;10.80;99.90
44579;DHT22;37422;51.402;0.016;2022-12-24T18:41:49;10.80;99.90
44579;DHT22;37422;51.402;0.016;2022-12-24T18:44:17;10.80;99.90
44579;DHT22;37422;51.402;0.016;2022-12-24T18:46:51;10.80;99.90
44579;DHT22;37422;51.402;0.016;2022-12-24T18:49:19;10.80;99.90
44579;DHT22;37422;51.402;0.016;2022-12-24T18:51:50;10.80;99.90
44579;DHT22;37422;51.402;0.016;2022-12-24T18:54:17;10.80;99.90
44579;DHT22;37422;51.402;0.016;2022-12-24T18:56:49;10.70;99.90
44579;DHT22;37422;51.402;0.016;2022-12-24T18:59:21;10.70;99.90
44579;DHT22;37422;51.402;0.016;2022-12-24T19:02:05;10.70;99.90
44579;DHT22;37422;51.402;0.016;2022-12-24T19:04:35;10.60;99.90
44579;DHT22;37422;51.402;0.016;2022-12-24T19:07:19;10.60;99.90
44579;DHT22;37422;51.402;0.016;2022-12-24T19:10:17;10.70;99.90
44579;DHT22;37422;51.402;0.016;2022-12-24T19:13:05;10.70;99.90
44579;DHT22;37422;51.402;0.016;2022-12-24T19:15:39;10.90;99.90
44579;DHT22;37422;51.402;0.016;2022-12-24T19:18:10;10.90;99.90
44579;DHT22;37422;51.402;0.016;2022-12-24T19:20:39;11.00;99.90
44579;DHT22;37422;51.402;0.016;2022-12-24T19:23:08;11.00;99.90
44579;DHT22;37422;51.402;0.016;2022-12-24T19:25:39;11.10;99.90
44579;DHT22;37422;51.402;0.016;2022-12-24T19:28:07;11.10;99.90
44579;DHT22;37422;51.402;0.016;2022-12-24T19:30:40;11.10;99.90
44579;DHT22;37422;51.402;0.016;2022-12-24T19:33:14;11.00;99.90
44579;DHT22;37422;51.402;0.016;2022-12-24T19:35:44;11.10;99.90
44579;DHT22;37422;51.402;0.016;2022-12-24T19:38:15;11.10;99.90
44579;DHT22;37422;51.402;0.016;2022-12-24T19:40:43;11.10;99.90
44579;DHT22;37422;51.402;0.016;2022-12-24T19:43:11;11.10;99.90
44579;DHT22;37422;51.402;0.016;2022-12-24T19:45:38;11.00;99.90
44579;DHT22;37422;51.402;0.016;2022-12-24T19:48:06;11.10;99.90
44579;DHT22;37422;51.402;0.016;2022-12-24T19:50:34;11.00;99.90
44579;DHT22;37422;51.402;0.016;2022-12-24T19:53:01;11.00;99.90
44579;DHT22;37422;51.402;0.016;2022-12-24T19:55:29;11.00;99.90
44579;DHT22;37422;51.402;0.016;2022-12-24T19:57:58;11.00;99.90
44579;DHT22;37422;51.402;0.016;2022-12-24T20:00:31;11.00;99.90
44579;DHT22;37422;51.402;0.016;2022-12-24T20:02:59;11.00;99.90
44579;DHT22;37422;51.402;0.016;2022-12-24T20:05:26;11.00;99.90
44579;DHT22;37422;51.402;0.016;2022-12-24T20:07:54;11.00;99.90
44579;DHT22;37422;51.402;0.016;2022-12-24T20:10:23;11.00;99.90
44579;DHT22;37422;51.402;0.016;2022-12-24T20:12:52;11.00;99.90
44579;DHT22;37422;51.402;0.016;2022-12-24T20:15:21;11.00;99.90
44579;DHT22;37422;51.402;0.016;2022-12-24T20:17:49;11.00;99.90
44579;DHT22;37422;51.402;0.016;2022-12-24T20:20:21;11.00;99.90
44579;DHT22;37422;51.402;0.016;2022-12-24T20:22:51;11.00;99.90
44579;DHT22;37422;51.402;0.016;2022-12-24T20:25:22;11.00;99.90
44579;DHT22;37422;51.402;0.016;2022-12-24T20:27:53;11.00;99.90
44579;DHT22;37422;51.402;0.016;2022-12-24T20:30:34;11.00;99.90
44579;DHT22;37422;51.402;0.016;2022-12-24T20:33:11;11.00;99.90
44579;DHT22;37422;51.402;0.016;2022-12-24T20:35:44;10.90;99.90